sensor_id;sensor_type;location;lat;lon;timestamp;pressure;altitude;pressure_sealevel;temperature;humidity
30421;BME280;17218;54.070;10.012;2022-09-09T00:00:18;100658.41;;;15.13;100.00
30421;BME280;17218;54.070;10.012;2022-09-09T00:02:53;100661.78;;;15.17;100.00
30421;BME280;17218;54.070;10.012;2022-09-09T00:05:29;100671.81;;;15.31;100.00
30421;BME280;17218;54.070;10.012;2022-09-09T00:07:59;100668.22;;;15.35;100.00
30421;BME280;17218;54.070;10.012;2022-09-09T00:10:31;100658.59;;;15.37;100.00
30421;BME280;17218;54.070;10.012;2022-09-09T00:13:05;100664.50;;;15.44;100.00
30421;BME280;17218;54.070;10.012;2022-09-09T00:15:38;100659.16;;;15.49;100.00
30421;BME280;17218;54.070;10.012;2022-09-09T00:18:17;100653.94;;;15.49;100.00
30421;BME280;17218;54.070;10.012;2022-09-09T00:20:51;100643.28;;;15.57;100.00
30421;BME280;17218;54.070;10.012;2022-09-09T00:23:24;100646.50;;;15.65;100.00
30421;BME280;17218;54.070;10.012;2022-09-09T00:25:59;100645.41;;;15.72;100.00
30421;BME280;17218;54.070;10.012;2022-09-09T00:28:29;100636.69;;;15.72;100.00
30421;BME280;17218;54.070;10.012;2022-09-09T00:31:00;100637.56;;;15.72;100.00
30421;BME280;17218;54.070;10.012;2022-09-09T00:33:35;100640.00;;;15.79;100.00
30421;BME280;17218;54.070;10.012;2022-09-09T00:36:03;100637.38;;;15.79;100.00
30421;BME280;17218;54.070;10.012;2022-09-09T00:38:35;100638.47;;;15.71;100.00
30421;BME280;17218;54.070;10.012;2022-09-09T00:41:08;100637.66;;;15.69;100.00
30421;BME280;17218;54.070;10.012;2022-09-09T00:43:36;100639.13;;;15.78;100.00
30421;BME280;17218;54.070;10.012;2022-09-09T00:46:27;100622.38;;;15.85;100.00
30421;BME280;17218;54.070;10.012;2022-09-09T00:49:04;100632.22;;;15.77;100.00
30421;BME280;17218;54.070;10.012;2022-09-09T00:51:44;100620.16;;;15.73;100.00
30421;BME280;17218;54.070;10.012;2022-09-09T00:54:28;100628.03;;;15.71;100.00
30421;BME280;17218;54.070;10.012;2022-09-09T00:57:07;100627.78;;;15.50;100.00
30421;BME280;17218;54.070;10.012;2022-09-09T00:59:45;100630.44;;;15.49;100.00
30421;BME280;17218;54.070;10.012;2022-09-09T01:02:19;100627.69;;;15.54;100.00
30421;BME280;17218;54.070;10.012;2022-09-09T01:04:49;100628.38;;;15.60;100.00
30421;BME280;17218;54.070;10.012;2022-09-09T01:07:17;100616.47;;;15.50;100.00
30421;BME280;17218;54.070;10.012;2022-09-09T01:09:53;100619.19;;;15.47;100.00
30421;BME280;17218;54.070;10.012;2022-09-09T01:12:29;100620.84;;;15.49;100.00
30421;BME280;17218;54.070;10.012;2022-09-09T01:15:04;100615.53;;;15.53;100.00
30421;BME280;17218;54.070;10.012;2022-09-09T01:17:41;100625.81;;;15.57;100.00
30421;BME280;17218;54.070;10.012;2022-09-09T01:20:14;100622.06;;;15.68;100.00
30421;BME280;17218;54.070;10.012;2022-09-09T01:22:53;100615.59;;;15.51;100.00
30421;BME280;17218;54.070;10.012;2022-09-09T01:25:29;100625.53;;;15.38;100.00
30421;BME280;17218;54.070;10.012;2022-09-09T01:27:59;100630.75;;;15.38;100.00
30421;BME280;17218;54.070;10.012;2022-09-09T01:30:28;100626.19;;;15.45;100.00
30421;BME280;17218;54.070;10.012;2022-09-09T01:32:56;100626.41;;;15.37;100.00
30421;BME280;17218;54.070;10.012;2022-09-09T01:35:35;100626.38;;;15.38;100.00
30421;BME280;17218;54.070;10.012;2022-09-09T01:38:03;100622.88;;;15.40;100.00
30421;BME280;17218;54.070;10.012;2022-09-09T01:40:31;100628.38;;;15.30;100.00
30421;BME280;17218;54.070;10.012;2022-09-09T01:42:59;100625.41;;;15.12;100.00
30421;BME280;17218;54.070;10.012;2022-09-09T01:45:26;100626.06;;;15.19;100.00
30421;BME280;17218;54.070;10.012;2022-09-09T01:47:52;100628.69;;;15.19;100.00
30421;BME280;17218;54.070;10.012;2022-09-09T01:50:19;100629.28;;;15.29;100.00
30421;BME280;17218;54.070;10.012;2022-09-09T01:52:48;100619.59;;;15.33;100.00
30421;BME280;17218;54.070;10.012;2022-09-09T01:55:16;100626.31;;;15.42;100.00
30421;BME280;17218;54.070;10.012;2022-09-09T01:57:53;100625.31;;;15.46;100.00
30421;BME280;17218;54.070;10.012;2022-09-09T02:00:25;100615.09;;;15.38;100.00
30421;BME280;17218;54.070;10.012;2022-09-09T02:02:57;100617.97;;;15.29;100.00
30421;BME280;17218;54.070;10.012;2022-09-09T02:05:32;100627.44;;;15.31;100.00
30421;BME280;17218;54.070;10.012;2022-09-09T02:08:06;100630.00;;;15.34;100.00
30421;BME280;17218;54.070;10.012;2022-09-09T02:10:37;100635.94;;;15.40;100.00
30421;BME280;17218;54.070;10.012;2022-09-09T02:13:10;100635.97;;;15.38;100.00
30421;BME280;17218;54.070;10.012;2022-09-09T02:15:42;100639.72;;;15.29;100.00
30421;BME280;17218;54.070;10.012;2022-09-09T02:18:13;100642.41;;;15.26;100.00
30421;BME280;17218;54.070;10.012;2022-09-09T02:20:41;100641.69;;;15.21;100.00
30421;BME280;17218;54.070;10.012;2022-09-09T02:23:11;100638.41;;;15.14;100.00
30421;BME280;17218;54.070;10.012;2022-09-09T02:25:40;100636.34;;;15.25;100.00
30421;BME280;17218;54.070;10.012;2022-09-09T02:28:09;100636.09;;;15.33;100.00
30421;BME280;17218;54.070;10.012;2022-09-09T02:30:40;100634.09;;;15.43;100.00
30421;BME280;17218;54.070;10.012;2022-09-09T02:33:09;100624.41;;;15.47;100.00
30421;BME280;17218;54.070;10.012;2022-09-09T02:35:38;100625.16;;;15.50;100.00
30421;BME280;17218;54.070;10.012;2022-09-09T02:38:09;100625.53;;;15.38;100.00
30421;BME280;17218;54.070;10.012;2022-09-09T02:40:36;100626.25;;;15.43;100.00
30421;BME280;17218;54.070;10.012;2022-09-09T02:43:03;100626.38;;;15.38;100.00
30421;BME280;17218;54.070;10.012;2022-09-09T02:45:36;100630.16;;;15.28;100.00
30421;BME280;17218;54.070;10.012;2022-09-09T02:48:12;100639.72;;;15.29;100.00
30421;BME280;17218;54.070;10.012;2022-09-09T02:50:44;100637.94;;;15.30;100.00
30421;BME280;17218;54.070;10.012;2022-09-09T02:53:17;100634.75;;;15.20;100.00
30421;BME280;17218;54.070;10.012;2022-09-09T02:55:47;100632.91;;;15.23;100.00
30421;BME280;17218;54.070;10.012;2022-09-09T02:58:16;100621.72;;;15.20;100.00
30421;BME280;17218;54.070;10.012;2022-09-09T03:00:44;100638.44;;;15.12;100.00
30421;BME280;17218;54.070;10.012;2022-09-09T03:03:13;100646.28;;;15.11;100.00
30421;BME280;17218;54.070;10.012;2022-09-09T03:05:41;100641.06;;;15.11;100.00
30421;BME280;17218;54.070;10.012;2022-09-09T03:08:07;100646.03;;;15.20;100.00
30421;BME280;17218;54.070;10.012;2022-09-09T03:10:34;100642.34;;;15.27;100.00
30421;BME280;17218;54.070;10.012;2022-09-09T03:13:02;100638.69;;;15.33;100.00
30421;BME280;17218;54.070;10.012;2022-09-09T03:15:29;100638.75;;;15.32;100.00
30421;BME280;17218;54.070;10.012;2022-09-09T03:17:56;100637.88;;;15.33;100.00
30421;BME280;17218;54.070;10.012;2022-09-09T03:20:25;100641.16;;;15.40;100.00
30421;BME280;17218;54.070;10.012;2022-09-09T03:22:52;100643.59;;;15.46;100.00
30421;BME280;17218;54.070;10.012;2022-09-09T03:25:19;100643.44;;;15.50;100.00
30421;BME280;17218;54.070;10.012;2022-09-09T03:27:46;100641.75;;;15.48;100.00
30421;BME280;17218;54.070;10.012;2022-09-09T03:30:13;100639.63;;;15.32;100.00
30421;BME280;17218;54.070;10.012;2022-09-09T03:32:40;100635.34;;;15.30;100.00
30421;BME280;17218;54.070;10.012;2022-09-09T03:35:07;100638.91;;;15.27;100.00
30421;BME280;17218;54.070;10.012;2022-09-09T03:37:35;100633.31;;;15.40;100.00
30421;BME280;17218;54.070;10.012;2022-09-09T03:40:04;100635.78;;;15.44;100.00
30421;BME280;17218;54.070;10.012;2022-09-09T03:42:31;100641.81;;;15.46;100.00
30421;BME280;17218;54.070;10.012;2022-09-09T03:44:57;100630.06;;;15.31;100.00
30421;BME280;17218;54.070;10.012;2022-09-09T03:47:24;100626.56;;;15.32;100.00
30421;BME280;17218;54.070;10.012;2022-09-09T03:49:51;100641.09;;;15.41;100.00
30421;BME280;17218;54.070;10.012;2022-09-09T03:52:17;100638.22;;;15.50;100.00
30421;BME280;17218;54.070;10.012;2022-09-09T03:54:46;100623.50;;;15.48;100.00
30421;BME280;17218;54.070;10.012;2022-09-09T03:57:13;100619.00;;;15.53;100.00
30421;BME280;17218;54.070;10.012;2022-09-09T03:59:42;100631.09;;;15.56;100.00
30421;BME280;17218;54.070;10.012;2022-09-09T04:02:08;100625.94;;;15.54;100.00
30421;BME280;17218;54.070;10.012;2022-09-09T04:04:35;100624.13;;;15.56;100.00
30421;BME280;17218;54.070;10.012;2022-09-09T04:07:02;100624.09;;;15.58;100.00
30421;BME280;17218;54.070;10.012;2022-09-09T04:09:31;100633.59;;;15.60;100.00
30421;BME280;17218;54.070;10.012;2022-09-09T04:11:59;100632.66;;;15.61;100.00
30421;BME280;17218;54.070;10.012;2022-09-09T04:14:25;100629.19;;;15.62;100.00
30421;BME280;17218;54.070;10.012;2022-09-09T04:16:54;100627.34;;;15.65;100.00
30421;BME280;17218;54.070;10.012;2022-09-09T04:19:21;100627.34;;;15.66;100.00
30421;BME280;17218;54.070;10.012;2022-09-09T04:21:47;100623.97;;;15.62;100.00
30421;BME280;17218;54.070;10.012;2022-09-09T04:24:17;100624.78;;;15.63;100.00
30421;BME280;17218;54.070;10.012;2022-09-09T04:26:44;100616.91;;;15.65;100.00
30421;BME280;17218;54.070;10.012;2022-09-09T04:29:11;100626.38;;;15.69;100.00
30421;BME280;17218;54.070;10.012;2022-09-09T04:31:38;100634.56;;;15.56;100.00
30421;BME280;17218;54.070;10.012;2022-09-09T04:34:07;100641.88;;;15.45;100.00
30421;BME280;17218;54.070;10.012;2022-09-09T04:36:33;100645.06;;;15.55;100.00
30421;BME280;17218;54.070;10.012;2022-09-09T04:39:00;100651.81;;;15.62;100.00
30421;BME280;17218;54.070;10.012;2022-09-09T04:41:27;100650.84;;;15.66;100.00
30421;BME280;17218;54.070;10.012;2022-09-09T04:43:54;100652.38;;;15.72;100.00
30421;BME280;17218;54.070;10.012;2022-09-09T04:46:22;100650.72;;;15.69;100.00
30421;BME280;17218;54.070;10.012;2022-09-09T04:48:49;100650.72;;;15.69;100.00
30421;BME280;17218;54.070;10.012;2022-09-09T04:51:16;100641.44;;;15.59;100.00
30421;BME280;17218;54.070;10.012;2022-09-09T04:53:43;100648.66;;;15.50;100.00
30421;BME280;17218;54.070;10.012;2022-09-09T04:56:11;100657.25;;;15.54;100.00
30421;BME280;17218;54.070;10.012;2022-09-09T04:58:39;100659.53;;;15.65;100.00
30421;BME280;17218;54.070;10.012;2022-09-09T05:01:09;100660.31;;;15.69;100.00
30421;BME280;17218;54.070;10.012;2022-09-09T05:03:37;100668.03;;;15.72;100.00
30421;BME280;17218;54.070;10.012;2022-09-09T05:06:06;100663.69;;;15.72;100.00
30421;BME280;17218;54.070;10.012;2022-09-09T05:08:33;100662.81;;;15.72;100.00
30421;BME280;17218;54.070;10.012;2022-09-09T05:11:00;100655.13;;;15.67;100.00
30421;BME280;17218;54.070;10.012;2022-09-09T05:13:27;100654.84;;;15.77;100.00
30421;BME280;17218;54.070;10.012;2022-09-09T05:15:53;100663.44;;;15.80;100.00
30421;BME280;17218;54.070;10.012;2022-09-09T05:18:20;100662.81;;;15.72;100.00
30421;BME280;17218;54.070;10.012;2022-09-09T05:20:49;100656.66;;;15.74;100.00
30421;BME280;17218;54.070;10.012;2022-09-09T05:23:16;100663.56;;;15.77;100.00
30421;BME280;17218;54.070;10.012;2022-09-09T05:25:42;100661.94;;;15.73;100.00
30421;BME280;17218;54.070;10.012;2022-09-09T05:28:09;100663.44;;;15.80;100.00
30421;BME280;17218;54.070;10.012;2022-09-09T05:30:36;100669.50;;;15.82;100.00
30421;BME280;17218;54.070;10.012;2022-09-09T05:33:03;100661.72;;;15.79;100.00
30421;BME280;17218;54.070;10.012;2022-09-09T05:35:31;100678.53;;;15.70;100.00
30421;BME280;17218;54.070;10.012;2022-09-09T05:38:00;100677.72;;;15.68;100.00
30421;BME280;17218;54.070;10.012;2022-09-09T05:40:27;100682.81;;;15.73;100.00
30421;BME280;17218;54.070;10.012;2022-09-09T05:42:54;100683.53;;;15.78;100.00
30421;BME280;17218;54.070;10.012;2022-09-09T05:45:21;100679.03;;;15.83;100.00
30421;BME280;17218;54.070;10.012;2022-09-09T05:47:51;100680.59;;;15.89;100.00
30421;BME280;17218;54.070;10.012;2022-09-09T05:50:18;100685.72;;;15.92;100.00
30421;BME280;17218;54.070;10.012;2022-09-09T05:52:44;100684.66;;;15.98;100.00
30421;BME280;17218;54.070;10.012;2022-09-09T05:55:12;100683.84;;;15.97;100.00
30421;BME280;17218;54.070;10.012;2022-09-09T05:57:39;100677.44;;;16.08;100.00
30421;BME280;17218;54.070;10.012;2022-09-09T06:00:06;100674.72;;;16.11;100.00
30421;BME280;17218;54.070;10.012;2022-09-09T06:02:33;100678.78;;;16.20;100.00
30421;BME280;17218;54.070;10.012;2022-09-09T06:05:02;100673.34;;;16.28;100.00
30421;BME280;17218;54.070;10.012;2022-09-09T06:07:28;100673.50;;;16.23;100.00
30421;BME280;17218;54.070;10.012;2022-09-09T06:09:55;100683.84;;;16.26;100.00
30421;BME280;17218;54.070;10.012;2022-09-09T06:12:23;100685.88;;;16.18;100.00
30421;BME280;17218;54.070;10.012;2022-09-09T06:14:49;100689.31;;;16.18;100.00
30421;BME280;17218;54.070;10.012;2022-09-09T06:17:17;100686.75;;;16.17;100.00
30421;BME280;17218;54.070;10.012;2022-09-09T06:19:43;100699.97;;;16.12;100.00
30421;BME280;17218;54.070;10.012;2022-09-09T06:22:10;100703.72;;;16.03;100.00
30421;BME280;17218;54.070;10.012;2022-09-09T06:24:37;100704.44;;;16.08;100.00
30421;BME280;17218;54.070;10.012;2022-09-09T06:27:04;100703.56;;;16.08;100.00
30421;BME280;17218;54.070;10.012;2022-09-09T06:29:33;100718.00;;;16.20;100.00
30421;BME280;17218;54.070;10.012;2022-09-09T06:31:59;100714.97;;;16.34;100.00
30421;BME280;17218;54.070;10.012;2022-09-09T06:34:26;100709.63;;;16.37;100.00
30421;BME280;17218;54.070;10.012;2022-09-09T06:36:53;100710.44;;;16.39;100.00
30421;BME280;17218;54.070;10.012;2022-09-09T06:39:19;100712.06;;;16.43;100.00
30421;BME280;17218;54.070;10.012;2022-09-09T06:41:46;100715.19;;;16.55;100.00
30421;BME280;17218;54.070;10.012;2022-09-09T06:44:13;100714.78;;;16.67;100.00
30421;BME280;17218;54.070;10.012;2022-09-09T06:46:41;100712.72;;;16.76;100.00
30421;BME280;17218;54.070;10.012;2022-09-09T06:49:08;100706.13;;;16.91;100.00
30421;BME280;17218;54.070;10.012;2022-09-09T06:51:37;100706.00;;;16.96;100.00
30421;BME280;17218;54.070;10.012;2022-09-09T06:54:07;100701.38;;;17.02;100.00
30421;BME280;17218;54.070;10.012;2022-09-09T06:56:35;100697.78;;;17.05;100.00
30421;BME280;17218;54.070;10.012;2022-09-09T06:59:03;100685.38;;;17.12;100.00
30421;BME280;17218;54.070;10.012;2022-09-09T07:01:32;100687.69;;;17.21;100.00
30421;BME280;17218;54.070;10.012;2022-09-09T07:04:02;100690.22;;;17.23;100.00
30421;BME280;17218;54.070;10.012;2022-09-09T07:06:30;100689.63;;;17.16;100.00
30421;BME280;17218;54.070;10.012;2022-09-09T07:08:59;100682.72;;;17.13;100.00
30421;BME280;17218;54.070;10.012;2022-09-09T07:11:27;100694.72;;;17.19;100.00
30421;BME280;17218;54.070;10.012;2022-09-09T07:13:54;100687.75;;;17.20;100.00
30421;BME280;17218;54.070;10.012;2022-09-09T07:16:23;100697.84;;;17.29;100.00
30421;BME280;17218;54.070;10.012;2022-09-09T07:18:50;100694.28;;;17.32;100.00
30421;BME280;17218;54.070;10.012;2022-09-09T07:21:18;100698.63;;;17.33;100.00
30421;BME280;17218;54.070;10.012;2022-09-09T07:23:46;100688.81;;;17.38;100.00
30421;BME280;17218;54.070;10.012;2022-09-09T07:26:14;100690.66;;;17.36;100.00
30421;BME280;17218;54.070;10.012;2022-09-09T07:28:41;100694.22;;;17.33;100.00
30421;BME280;17218;54.070;10.012;2022-09-09T07:31:13;100701.06;;;17.37;100.00
30421;BME280;17218;54.070;10.012;2022-09-09T07:33:42;100689.66;;;17.38;100.00
30421;BME280;17218;54.070;10.012;2022-09-09T07:36:10;100690.78;;;17.33;100.00
30421;BME280;17218;54.070;10.012;2022-09-09T07:38:40;100691.38;;;17.15;100.00
30421;BME280;17218;54.070;10.012;2022-09-09T07:41:10;100695.81;;;17.13;100.00
30421;BME280;17218;54.070;10.012;2022-09-09T07:43:38;100688.69;;;16.91;100.00
30421;BME280;17218;54.070;10.012;2022-09-09T07:46:06;100694.72;;;16.93;100.00
30421;BME280;17218;54.070;10.012;2022-09-09T07:48:33;100691.53;;;17.09;100.00
30421;BME280;17218;54.070;10.012;2022-09-09T07:51:07;100685.91;;;17.22;100.00
30421;BME280;17218;54.070;10.012;2022-09-09T07:53:35;100692.41;;;17.10;100.00
30421;BME280;17218;54.070;10.012;2022-09-09T07:56:06;100694.84;;;17.16;100.00
30421;BME280;17218;54.070;10.012;2022-09-09T07:58:35;100695.81;;;17.13;100.00
30421;BME280;17218;54.070;10.012;2022-09-09T08:01:06;100694.28;;;17.06;100.00
30421;BME280;17218;54.070;10.012;2022-09-09T08:03:33;100702.31;;;17.27;100.00
30421;BME280;17218;54.070;10.012;2022-09-09T08:06:00;100701.53;;;17.49;100.00
30421;BME280;17218;54.070;10.012;2022-09-09T08:08:28;100692.28;;;17.62;100.00
30421;BME280;17218;54.070;10.012;2022-09-09T08:11:04;100683.59;;;17.62;100.00
30421;BME280;17218;54.070;10.012;2022-09-09T08:13:34;100686.06;;;17.65;100.00
30421;BME280;17218;54.070;10.012;2022-09-09T08:16:06;100694.44;;;17.75;100.00
30421;BME280;17218;54.070;10.012;2022-09-09T08:18:33;100693.38;;;17.79;100.00
30421;BME280;17218;54.070;10.012;2022-09-09T08:21:05;100690.78;;;17.79;100.00
30421;BME280;17218;54.070;10.012;2022-09-09T08:23:32;100690.00;;;17.77;100.00
30421;BME280;17218;54.070;10.012;2022-09-09T08:26:03;100691.34;;;17.87;100.00
30421;BME280;17218;54.070;10.012;2022-09-09T08:28:30;100695.94;;;18.05;100.00
30421;BME280;17218;54.070;10.012;2022-09-09T08:31:09;100690.41;;;17.88;100.00
30421;BME280;17218;54.070;10.012;2022-09-09T08:33:36;100689.75;;;17.83;100.00
30421;BME280;17218;54.070;10.012;2022-09-09T08:36:05;100690.00;;;17.99;100.00
30421;BME280;17218;54.070;10.012;2022-09-09T08:38:32;100693.59;;;17.97;100.00
30421;BME280;17218;54.070;10.012;2022-09-09T08:43:46;100705.94;;;18.40;100.00
30421;BME280;17218;54.070;10.012;2022-09-09T08:46:20;100701.19;;;18.70;100.00
30421;BME280;17218;54.070;10.012;2022-09-09T08:48:54;100695.66;;;18.98;100.00
30421;BME280;17218;54.070;10.012;2022-09-09T08:51:25;100697.09;;;19.26;100.00
30421;BME280;17218;54.070;10.012;2022-09-09T08:53:54;100694.56;;;19.43;100.00
30421;BME280;17218;54.070;10.012;2022-09-09T08:56:23;100692.66;;;19.47;100.00
30421;BME280;17218;54.070;10.012;2022-09-09T08:58:52;100689.38;;;19.61;100.00
30421;BME280;17218;54.070;10.012;2022-09-09T09:01:32;100691.75;;;19.67;100.00
30421;BME280;17218;54.070;10.012;2022-09-09T09:04:06;100699.03;;;19.61;100.00
30421;BME280;17218;54.070;10.012;2022-09-09T09:06:48;100702.72;;;19.76;100.00
30421;BME280;17218;54.070;10.012;2022-09-09T09:09:21;100707.72;;;19.82;100.00
30421;BME280;17218;54.070;10.012;2022-09-09T09:11:53;100705.03;;;20.01;100.00
30421;BME280;17218;54.070;10.012;2022-09-09T09:14:22;100702.72;;;19.95;100.00
30421;BME280;17218;54.070;10.012;2022-09-09T09:16:53;100690.28;;;19.99;100.00
30421;BME280;17218;54.070;10.012;2022-09-09T09:19:21;100703.13;;;20.05;100.00
30421;BME280;17218;54.070;10.012;2022-09-09T09:21:54;100699.63;;;20.05;100.00
30421;BME280;17218;54.070;10.012;2022-09-09T09:24:28;100695.81;;;19.93;100.00
30421;BME280;17218;54.070;10.012;2022-09-09T09:26:59;100707.19;;;20.12;100.00
30421;BME280;17218;54.070;10.012;2022-09-09T09:29:30;100702.25;;;20.24;100.00
30421;BME280;17218;54.070;10.012;2022-09-09T09:32:01;100690.59;;;20.30;100.00
30421;BME280;17218;54.070;10.012;2022-09-09T09:34:29;100699.81;;;20.38;100.00
30421;BME280;17218;54.070;10.012;2022-09-09T09:36:56;100700.25;;;20.11;100.00
30421;BME280;17218;54.070;10.012;2022-09-09T09:39:25;100696.84;;;19.71;100.00
30421;BME280;17218;54.070;10.012;2022-09-09T09:41:52;100705.00;;;19.84;100.00
30421;BME280;17218;54.070;10.012;2022-09-09T09:44:23;100699.00;;;19.99;100.00
30421;BME280;17218;54.070;10.012;2022-09-09T09:46:50;100701.72;;;19.98;100.00
30421;BME280;17218;54.070;10.012;2022-09-09T09:49:19;100699.31;;;19.93;100.00
30421;BME280;17218;54.070;10.012;2022-09-09T09:51:46;100697.72;;;19.71;100.00
30421;BME280;17218;54.070;10.012;2022-09-09T09:54:17;100693.22;;;19.54;100.00
30421;BME280;17218;54.070;10.012;2022-09-09T09:56:48;100702.34;;;19.26;100.00
30421;BME280;17218;54.070;10.012;2022-09-09T09:59:23;100696.94;;;19.29;100.00
30421;BME280;17218;54.070;10.012;2022-09-09T10:02:12;100690.56;;;19.35;100.00
30421;BME280;17218;54.070;10.012;2022-09-09T10:04:41;100701.72;;;19.21;100.00
30421;BME280;17218;54.070;10.012;2022-09-09T10:07:10;100699.88;;;19.23;100.00
30421;BME280;17218;54.070;10.012;2022-09-09T10:09:37;100703.91;;;19.30;100.00
30421;BME280;17218;54.070;10.012;2022-09-09T10:12:14;100700.75;;;19.42;100.00
30421;BME280;17218;54.070;10.012;2022-09-09T10:14:49;100701.53;;;19.45;100.00
30421;BME280;17218;54.070;10.012;2022-09-09T10:17:27;100700.88;;;19.39;100.00
30421;BME280;17218;54.070;10.012;2022-09-09T10:20:15;100700.09;;;19.57;100.00
30421;BME280;17218;54.070;10.012;2022-09-09T10:22:47;100685.69;;;19.65;100.00
30421;BME280;17218;54.070;10.012;2022-09-09T10:25:31;100692.16;;;19.77;100.00
30421;BME280;17218;54.070;10.012;2022-09-09T10:31:13;100683.56;;;19.74;100.00
30421;BME280;17218;54.070;10.012;2022-09-09T10:33:49;100687.31;;;19.87;100.00
30421;BME280;17218;54.070;10.012;2022-09-09T10:36:20;100689.59;;;19.95;100.00
30421;BME280;17218;54.070;10.012;2022-09-09T10:38:48;100688.81;;;19.93;100.00
30421;BME280;17218;54.070;10.012;2022-09-09T10:41:19;100687.94;;;19.93;100.00
30421;BME280;17218;54.070;10.012;2022-09-09T10:44:10;100688.38;;;19.83;100.00
30421;BME280;17218;54.070;10.012;2022-09-09T10:47:00;100693.72;;;19.82;100.00
30421;BME280;17218;54.070;10.012;2022-09-09T10:49:46;100693.41;;;20.07;100.00
30421;BME280;17218;54.070;10.012;2022-09-09T10:52:23;100696.38;;;20.19;100.00
30421;BME280;17218;54.070;10.012;2022-09-09T10:54:56;100694.69;;;20.35;100.00
30421;BME280;17218;54.070;10.012;2022-09-09T10:57:28;100698.03;;;20.57;100.00
30421;BME280;17218;54.070;10.012;2022-09-09T10:59:59;100687.81;;;20.68;100.00
30421;BME280;17218;54.070;10.012;2022-09-09T11:02:29;100680.81;;;21.03;100.00
30421;BME280;17218;54.070;10.012;2022-09-09T11:05:01;100691.53;;;21.33;100.00
30421;BME280;17218;54.070;10.012;2022-09-09T11:07:34;100685.00;;;21.73;100.00
30421;BME280;17218;54.070;10.012;2022-09-09T11:10:12;100693.59;;;22.09;100.00
30421;BME280;17218;54.070;10.012;2022-09-09T11:12:43;100690.72;;;21.98;100.00
30421;BME280;17218;54.070;10.012;2022-09-09T11:15:17;100689.00;;;22.44;100.00
30421;BME280;17218;54.070;10.012;2022-09-09T11:17:50;100691.84;;;23.00;100.00
30421;BME280;17218;54.070;10.012;2022-09-09T11:20:19;100690.19;;;23.71;100.00
30421;BME280;17218;54.070;10.012;2022-09-09T11:22:50;100687.31;;;23.89;100.00
30421;BME280;17218;54.070;10.012;2022-09-09T11:25:23;100686.84;;;24.24;100.00
30421;BME280;17218;54.070;10.012;2022-09-09T11:28:01;100687.22;;;25.61;100.00
30421;BME280;17218;54.070;10.012;2022-09-09T11:30:37;100688.22;;;27.05;75.88
30421;BME280;17218;54.070;10.012;2022-09-09T11:33:28;100689.19;;;27.94;68.54
30421;BME280;17218;54.070;10.012;2022-09-09T11:36:09;100684.63;;;29.74;59.36
30421;BME280;17218;54.070;10.012;2022-09-09T11:38:45;100694.84;;;31.16;55.42
30421;BME280;17218;54.070;10.012;2022-09-09T11:41:12;100689.84;;;32.14;49.78
30421;BME280;17218;54.070;10.012;2022-09-09T11:43:41;100703.44;;;31.38;44.79
30421;BME280;17218;54.070;10.012;2022-09-09T11:46:10;100694.19;;;31.78;49.07
30421;BME280;17218;54.070;10.012;2022-09-09T11:48:39;100688.44;;;31.73;43.82
30421;BME280;17218;54.070;10.012;2022-09-09T11:51:10;100691.81;;;31.94;45.75
30421;BME280;17218;54.070;10.012;2022-09-09T11:53:50;100700.25;;;30.28;48.06
30421;BME280;17218;54.070;10.012;2022-09-09T11:56:28;100710.75;;;29.19;53.74
30421;BME280;17218;54.070;10.012;2022-09-09T11:59:01;100712.75;;;29.37;54.02
30421;BME280;17218;54.070;10.012;2022-09-09T12:01:39;100696.63;;;30.87;51.22
30421;BME280;17218;54.070;10.012;2022-09-09T12:04:26;100702.63;;;32.02;47.42
30421;BME280;17218;54.070;10.012;2022-09-09T12:06:56;100697.19;;;32.38;41.78
30421;BME280;17218;54.070;10.012;2022-09-09T12:09:29;100702.41;;;30.82;48.53
30421;BME280;17218;54.070;10.012;2022-09-09T12:12:17;100695.63;;;30.10;55.77
30421;BME280;17218;54.070;10.012;2022-09-09T12:14:56;100691.50;;;31.78;46.32
30421;BME280;17218;54.070;10.012;2022-09-09T12:17:26;100700.41;;;33.39;42.09
30421;BME280;17218;54.070;10.012;2022-09-09T12:20:01;100699.47;;;33.65;38.52
30421;BME280;17218;54.070;10.012;2022-09-09T12:22:37;100690.53;;;32.43;42.88
30421;BME280;17218;54.070;10.012;2022-09-09T12:25:16;100689.44;;;33.15;42.81
30421;BME280;17218;54.070;10.012;2022-09-09T12:27:49;100680.50;;;34.50;39.80
30421;BME280;17218;54.070;10.012;2022-09-09T12:30:21;100675.22;;;35.77;36.79
30421;BME280;17218;54.070;10.012;2022-09-09T12:33:00;100684.25;;;35.61;36.48
30421;BME280;17218;54.070;10.012;2022-09-09T12:35:28;100682.31;;;35.15;37.41
30421;BME280;17218;54.070;10.012;2022-09-09T12:37:58;100687.81;;;35.77;36.01
30421;BME280;17218;54.070;10.012;2022-09-09T12:40:29;100679.72;;;35.30;35.13
30421;BME280;17218;54.070;10.012;2022-09-09T12:42:56;100687.34;;;34.69;37.39
30421;BME280;17218;54.070;10.012;2022-09-09T12:45:25;100684.31;;;34.72;36.59
30421;BME280;17218;54.070;10.012;2022-09-09T12:47:56;100674.34;;;35.77;34.86
30421;BME280;17218;54.070;10.012;2022-09-09T12:50:25;100682.97;;;35.17;35.68
30421;BME280;17218;54.070;10.012;2022-09-09T12:52:54;100680.19;;;34.11;36.57